Time;durP1;ratioP1;P1;durP2;ratioP2;P2;SDS_P1;SDS_P2;PMS_P1;PMS_P2;Temp;Humidity;BMP_temperature;BMP_pressure;BME280_temperature;BME280_humidity;BME280_pressure;Samples;Min_cycle;Max_cycle;Signal;HPM_P1;HPM_P2
2023/06/25 00:02:00;;;;;;;5.90;4.30;;;;;;;-148.14;100.00;71486.72;1725449;75;41174;-74
2023/06/25 00:04:30;;;;;;;6.60;4.60;;;;;;;-148.14;100.00;71486.72;1725229;75;41862;-75
2023/06/25 00:06:59;;;;;;;6.20;5.20;;;;;;;-148.14;100.00;71486.72;1725194;75;41165;-72
2023/06/25 00:09:29;;;;;;;5.30;4.10;;;;;;;-148.14;100.00;71486.72;1725012;75;41176;-71
2023/06/25 00:11:58;;;;;;;5.30;4.10;;;;;;;-148.14;100.00;71486.72;1725349;75;41345;-75
2023/06/25 00:14:30;;;;;;;4.00;3.30;;;;;;;-148.14;100.00;71486.72;1724710;75;41352;-76
2023/06/25 00:17:00;;;;;;;4.30;3.30;;;;;;;-148.14;100.00;71486.72;1725511;75;41555;-74
2023/06/25 00:19:29;;;;;;;3.40;2.50;;;;;;;-148.14;100.00;71486.72;1725448;75;41937;-75
2023/06/25 00:21:59;;;;;;;4.40;3.30;;;;;;;-148.14;100.00;71486.72;1725826;75;41362;-75
2023/06/25 00:24:28;;;;;;;3.60;3.10;;;;;;;-148.14;100.00;71486.72;1724930;75;41511;-74
2023/06/25 00:26:58;;;;;;;3.50;2.80;;;;;;;-148.14;100.00;71486.72;1724881;83;41407;-72
2023/06/25 00:29:30;;;;;;;3.90;3.10;;;;;;;-148.14;100.00;71486.72;1724766;75;42009;-74
2023/06/25 00:31:59;;;;;;;3.70;2.90;;;;;;;-148.14;100.00;71486.72;1725445;75;41174;-73
2023/06/25 00:34:29;;;;;;;2.50;2.10;;;;;;;-148.14;100.00;71486.72;1724317;75;41524;-74
2023/06/25 00:36:58;;;;;;;5.90;2.90;;;;;;;-148.14;100.00;71486.72;1725650;83;41395;-72
2023/06/25 00:39:28;;;;;;;3.60;2.70;;;;;;;-148.14;100.00;71486.72;1725301;75;41747;-73
2023/06/25 00:41:58;;;;;;;3.50;2.90;;;;;;;-148.14;100.00;71486.72;1725167;75;41872;-76
2023/06/25 00:44:30;;;;;;;3.50;2.80;;;;;;;-148.14;100.00;71486.72;1725368;75;41510;-75
2023/06/25 00:47:00;;;;;;;4.10;3.30;;;;;;;-148.14;100.00;71486.72;1725709;75;41463;-74
2023/06/25 00:49:33;;;;;;;5.40;4.10;;;;;;;-148.14;100.00;71486.72;1724521;75;41280;-74
2023/06/25 00:52:08;;;;;;;6.30;3.90;;;;;;;-148.14;100.00;71486.72;1725685;75;41290;-75
2023/06/25 00:54:39;;;;;;;4.50;3.30;;;;;;;-148.14;100.00;71486.72;1725292;75;41928;-74
2023/06/25 00:57:09;;;;;;;4.40;3.70;;;;;;;-148.14;100.00;71486.72;1725888;75;41387;-73
2023/06/25 00:59:44;;;;;;;6.50;3.80;;;;;;;-148.14;100.00;71486.72;1724909;75;42103;-73
2023/06/25 01:02:22;;;;;;;3.50;3.20;;;;;;;-148.14;100.00;71486.72;1725761;75;41296;-73
2023/06/25 01:04:57;;;;;;;;;;;;;;;-148.14;100.00;71486.72;1725545;75;42101;-74
2023/06/25 01:07:27;;;;;;;3.90;3.50;;;;;;;-148.14;100.00;71486.72;1725697;83;41122;-74
2023/06/25 01:09:59;;;;;;;3.90;3.10;;;;;;;-148.14;100.00;71486.72;1725440;75;41787;-73
2023/06/25 01:12:28;;;;;;;3.40;3.00;;;;;;;-148.14;100.00;71486.72;1725535;75;41736;-75
2023/06/25 01:15:01;;;;;;;4.00;3.30;;;;;;;-148.14;100.00;71486.72;1724838;75;42849;-76
2023/06/25 01:17:31;;;;;;;3.90;3.20;;;;;;;-148.14;100.00;71486.72;1725820;75;41131;-73
2023/06/25 01:20:01;;;;;;;4.30;3.30;;;;;;;-148.14;100.00;71486.72;1725744;75;41870;-74
2023/06/25 01:22:34;;;;;;;3.70;3.20;;;;;;;-148.14;100.00;71486.72;1726175;75;41770;-74
2023/06/25 01:25:04;;;;;;;3.50;3.00;;;;;;;-148.14;100.00;71486.72;1725777;75;41582;-73
2023/06/25 01:27:36;;;;;;;3.80;3.00;;;;;;;-148.14;100.00;71486.72;1725777;75;41132;-73
2023/06/25 01:30:06;;;;;;;4.10;3.30;;;;;;;-148.14;100.00;71486.72;1725957;75;43480;-73
2023/06/25 01:32:36;;;;;;;3.90;2.90;;;;;;;-148.14;100.00;71486.72;1726129;83;41547;-75
2023/06/25 01:35:06;;;;;;;3.40;3.10;;;;;;;-148.14;100.00;71486.72;1724684;75;41264;-75
2023/06/25 01:37:38;;;;;;;3.10;2.80;;;;;;;-148.14;100.00;71486.72;1725838;83;41071;-71
2023/06/25 01:40:09;;;;;;;6.60;2.80;;;;;;;-148.14;100.00;71486.72;1725351;75;41619;-73
2023/06/25 01:42:40;;;;;;;3.30;3.00;;;;;;;-148.14;100.00;71486.72;1725757;75;41535;-73
2023/06/25 01:45:11;;;;;;;3.30;2.90;;;;;;;-148.14;100.00;71486.72;1725049;75;42030;-74
2023/06/25 01:47:41;;;;;;;3.90;2.90;;;;;;;-148.14;100.00;71486.72;1725546;75;41424;-74
2023/06/25 01:50:11;;;;;;;3.40;3.10;;;;;;;-148.14;100.00;71486.72;1725278;75;41562;-74
2023/06/25 01:52:44;;;;;;;3.20;2.80;;;;;;;-148.14;100.00;71486.72;1725702;75;41361;-74
2023/06/25 01:55:13;;;;;;;3.50;3.00;;;;;;;-148.14;100.00;71486.72;1725076;75;41419;-73
2023/06/25 01:57:42;;;;;;;3.40;3.00;;;;;;;-148.14;100.00;71486.72;1724906;83;41623;-77
2023/06/25 02:00:14;;;;;;;3.50;3.10;;;;;;;-148.14;100.00;71486.72;1725175;75;41242;-71
2023/06/25 02:02:43;;;;;;;3.40;3.10;;;;;;;-148.14;100.00;71486.72;1725784;75;41539;-73
2023/06/25 02:05:13;;;;;;;3.60;3.10;;;;;;;-148.14;100.00;71486.72;1724510;75;41923;-74
2023/06/25 02:07:45;;;;;;;4.70;3.80;;;;;;;-148.14;100.00;71486.72;1725406;75;41456;-73
2023/06/25 02:10:15;;;;;;;3.40;2.90;;;;;;;-148.14;100.00;71486.72;1724686;75;41855;-74
2023/06/25 02:12:45;;;;;;;3.30;3.00;;;;;;;-148.14;100.00;71486.72;1725738;75;41123;-73
2023/06/25 02:15:14;;;;;;;5.80;4.50;;;;;;;-148.14;100.00;71486.72;1725146;75;41380;-71
2023/06/25 02:17:44;;;;;;;5.40;4.40;;;;;;;-148.14;100.00;71486.72;1725378;75;41623;-75
2023/06/25 02:20:14;;;;;;;5.70;4.00;;;;;;;-148.14;100.00;71486.72;1724715;75;41470;-75
2023/06/25 02:22:47;;;;;;;4.20;3.50;;;;;;;-148.14;100.00;71486.72;1725047;75;41232;-74
2023/06/25 02:25:17;;;;;;;3.30;3.00;;;;;;;-148.14;100.00;71486.72;1724473;75;43775;-72
2023/06/25 02:27:47;;;;;;;3.40;2.90;;;;;;;-148.14;100.00;71486.72;1725409;75;41175;-72
2023/06/25 02:30:16;;;;;;;3.00;2.70;;;;;;;-148.14;100.00;71486.72;1724651;75;41363;-73
2023/06/25 02:32:46;;;;;;;3.90;3.30;;;;;;;-148.14;100.00;71486.72;1725453;75;42336;-73
2023/06/25 02:35:15;;;;;;;2.90;2.60;;;;;;;-148.14;100.00;71486.72;1725070;75;41348;-74
2023/06/25 02:37:48;;;;;;;3.60;2.80;;;;;;;-148.14;100.00;71486.72;1725588;75;41513;-73
2023/06/25 02:40:17;;;;;;;3.20;2.90;;;;;;;-148.14;100.00;71486.72;1724904;75;42092;-73
2023/06/25 02:42:47;;;;;;;3.60;3.30;;;;;;;-148.14;100.00;71486.72;1725495;75;41786;-74
2023/06/25 02:45:16;;;;;;;4.00;3.20;;;;;;;-148.14;100.00;71486.72;1725044;75;41755;-72
2023/06/25 02:47:46;;;;;;;4.60;3.10;;;;;;;-148.14;100.00;71486.72;1724880;75;41132;-74
2023/06/25 02:50:15;;;;;;;3.10;2.80;;;;;;;-148.14;100.00;71486.72;1725110;75;41739;-76
2023/06/25 02:52:48;;;;;;;4.20;3.10;;;;;;;-148.14;100.00;71486.72;1725484;75;41422;-74
2023/06/25 02:55:17;;;;;;;3.90;3.20;;;;;;;-148.14;100.00;71486.72;1724451;75;41827;-75
2023/06/25 02:57:47;;;;;;;4.20;3.10;;;;;;;-148.14;100.00;71486.72;1725312;75;41301;-73
2023/06/25 03:00:17;;;;;;;3.90;3.10;;;;;;;-148.14;100.00;71486.72;1724996;75;41391;-73
2023/06/25 03:02:46;;;;;;;3.20;2.90;;;;;;;-148.14;100.00;71486.72;1725009;75;41934;-73
2023/06/25 03:05:16;;;;;;;3.60;3.00;;;;;;;-148.14;100.00;71486.72;1724421;75;41994;-71
2023/06/25 03:07:55;;;;;;;2.80;2.60;;;;;;;-148.14;100.00;71486.72;1725481;75;41893;-77
2023/06/25 03:10:26;;;;;;;3.30;2.70;;;;;;;-148.14;100.00;71486.72;1724401;75;43764;-73
2023/06/25 03:12:55;;;;;;;2.90;2.60;;;;;;;-148.14;100.00;71486.72;1725311;75;41750;-72
2023/06/25 03:15:25;;;;;;;3.20;2.80;;;;;;;-148.14;100.00;71486.72;1724947;75;41535;-74
2023/06/25 03:17:54;;;;;;;4.60;3.20;;;;;;;-148.14;100.00;71486.72;1725412;75;41659;-72
2023/06/25 03:20:24;;;;;;;4.40;3.80;;;;;;;-148.14;100.00;71486.72;1724695;75;41578;-74
2023/06/25 03:22:56;;;;;;;4.40;4.00;;;;;;;-148.14;100.00;71486.72;1724457;75;41664;-75
2023/06/25 03:25:25;;;;;;;5.00;4.30;;;;;;;-148.14;100.00;71486.72;1723635;83;41624;-73
2023/06/25 03:27:55;;;;;;;5.50;3.50;;;;;;;-148.14;100.00;71486.72;1725330;75;41326;-72
2023/06/25 03:30:24;;;;;;;4.50;4.00;;;;;;;-148.14;100.00;71486.72;1724687;75;41533;-73
2023/06/25 03:32:54;;;;;;;4.40;3.20;;;;;;;-148.14;100.00;71486.72;1725371;75;42221;-73
2023/06/25 03:35:23;;;;;;;4.40;3.50;;;;;;;-148.14;100.00;71486.72;1724429;75;41154;-72
2023/06/25 03:37:55;;;;;;;4.80;4.00;;;;;;;-148.14;100.00;71486.72;1725301;75;41758;-74
2023/06/25 03:40:25;;;;;;;3.90;3.30;;;;;;;-148.14;100.00;71486.72;1724162;75;41270;-72
2023/06/25 03:42:54;;;;;;;3.80;3.40;;;;;;;-148.14;100.00;71486.72;1725213;75;41694;-73
2023/06/25 03:45:24;;;;;;;3.80;3.00;;;;;;;-148.14;100.00;71486.72;1724519;75;41969;-74
2023/06/25 03:47:53;;;;;;;3.20;2.90;;;;;;;-148.14;100.00;71486.72;1724648;75;41842;-73
2023/06/25 03:50:23;;;;;;;3.10;2.80;;;;;;;-148.14;100.00;71486.72;1724785;75;41350;-74
2023/06/25 03:52:55;;;;;;;3.10;2.80;;;;;;;-148.14;100.00;71486.72;1724927;83;41108;-74
2023/06/25 03:55:24;;;;;;;2.80;2.50;;;;;;;-148.14;100.00;71486.72;1724726;75;41756;-75
2023/06/25 03:57:54;;;;;;;2.70;2.20;;;;;;;-148.14;100.00;71486.72;1724942;75;41321;-72
2023/06/25 04:00:24;;;;;;;4.10;3.70;;;;;;;-148.14;100.00;71486.72;1724724;75;41576;-74
2023/06/25 04:02:53;;;;;;;4.20;3.80;;;;;;;-148.14;100.00;71486.72;1725161;83;41082;-72
2023/06/25 04:05:23;;;;;;;3.20;2.90;;;;;;;-148.14;100.00;71486.72;1724219;75;41260;-74
2023/06/25 04:07:55;;;;;;;4.10;3.10;;;;;;;-148.14;100.00;71486.72;1724993;75;41203;-72
2023/06/25 04:10:25;;;;;;;3.60;2.70;;;;;;;-148.14;100.00;71486.72;1725066;83;41667;-74
2023/06/25 04:12:54;;;;;;;3.70;3.10;;;;;;;-148.14;100.00;71486.72;1725753;75;41427;-75
2023/06/25 04:15:24;;;;;;;4.00;3.60;;;;;;;-148.14;100.00;71486.72;1725200;75;42040;-74
2023/06/25 04:17:53;;;;;;;4.60;3.70;;;;;;;-148.14;100.00;71486.72;1726225;75;41107;-76
2023/06/25 04:20:25;;;;;;;4.10;3.10;;;;;;;-148.14;100.00;71486.72;1725623;75;41723;-76
2023/06/25 04:22:57;;;;;;;3.70;3.30;;;;;;;-148.14;100.00;71486.72;1726119;75;41767;-76
2023/06/25 04:25:26;;;;;;;3.80;3.40;;;;;;;-148.14;100.00;71486.72;1725813;75;41860;-76
2023/06/25 04:27:57;;;;;;;4.60;3.50;;;;;;;-148.14;100.00;71486.72;1725600;75;41577;-76
2023/06/25 04:30:27;;;;;;;5.20;4.10;;;;;;;-148.14;100.00;71486.72;1725411;75;41429;-75
2023/06/25 04:32:56;;;;;;;3.60;3.30;;;;;;;-148.14;100.00;71486.72;1726081;75;41567;-78
2023/06/25 04:35:26;;;;;;;3.80;3.40;;;;;;;-148.14;100.00;71486.72;1724825;75;41224;-75
2023/06/25 04:37:58;;;;;;;3.30;3.00;;;;;;;-148.14;100.00;71486.72;1726074;75;41095;-73
2023/06/25 04:40:28;;;;;;;2.70;2.30;;;;;;;-148.14;100.00;71486.72;1724687;75;41564;-76
2023/06/25 04:42:57;;;;;;;2.20;2.00;;;;;;;-148.14;100.00;71486.72;1725666;83;41071;-74
2023/06/25 04:45:27;;;;;;;2.10;1.90;;;;;;;-148.14;100.00;71486.72;1725105;75;41519;-75
2023/06/25 04:47:56;;;;;;;2.20;2.00;;;;;;;-148.14;100.00;71486.72;1725210;75;41299;-75
2023/06/25 04:50:26;;;;;;;2.40;2.20;;;;;;;-148.14;100.00;71486.72;1725286;75;41155;-76
2023/06/25 04:52:59;;;;;;;2.30;2.00;;;;;;;-148.14;100.00;71486.72;1725430;75;41595;-76
2023/06/25 04:55:29;;;;;;;2.30;2.00;;;;;;;-148.14;100.00;71486.72;1724894;75;42914;-77
2023/06/25 04:57:58;;;;;;;2.30;2.00;;;;;;;-148.14;100.00;71486.72;1725809;75;41363;-74
2023/06/25 05:00:28;;;;;;;2.40;2.20;;;;;;;-148.14;100.00;71486.72;1725322;75;42028;-78
2023/06/25 05:02:57;;;;;;;2.90;2.40;;;;;;;-148.14;100.00;71486.72;1725720;75;41834;-76
2023/06/25 05:05:27;;;;;;;3.00;2.60;;;;;;;-148.14;100.00;71486.72;1725316;75;41790;-74
2023/06/25 05:07:59;;;;;;;2.80;2.30;;;;;;;-148.14;100.00;71486.72;1725700;75;41332;-77
2023/06/25 05:10:28;;;;;;;3.70;2.80;;;;;;;-148.14;100.00;71486.72;1725336;75;41272;-75
2023/06/25 05:12:59;;;;;;;5.30;4.40;;;;;;;-148.14;100.00;71486.72;1725827;75;41120;-75
2023/06/25 05:15:29;;;;;;;4.50;4.10;;;;;;;-148.14;100.00;71486.72;1724544;75;42615;-74
2023/06/25 05:17:58;;;;;;;4.10;3.70;;;;;;;-148.14;100.00;71486.72;1725359;75;41694;-77
2023/06/25 05:20:31;;;;;;;3.40;3.10;;;;;;;-148.14;100.00;71486.72;1725415;75;41331;-76
2023/06/25 05:23:03;;;;;;;2.80;2.50;;;;;;;-148.14;100.00;71486.72;1725522;83;41329;-73
2023/06/25 05:25:32;;;;;;;3.10;2.80;;;;;;;-148.14;100.00;71486.72;1725773;75;41323;-76
2023/06/25 05:28:03;;;;;;;2.90;2.50;;;;;;;-148.14;100.00;71486.72;1726413;75;41107;-76
2023/06/25 05:30:33;;;;;;;2.80;2.50;;;;;;;-148.14;100.00;71486.72;1726278;83;41687;-75
2023/06/25 05:33:02;;;;;;;4.10;2.90;;;;;;;-148.14;100.00;71486.72;1726665;75;41146;-75
2023/06/25 05:35:32;;;;;;;2.90;2.60;;;;;;;-148.14;100.00;71486.72;1725772;83;41357;-73
2023/06/25 05:38:04;;;;;;;2.70;2.50;;;;;;;-148.14;100.00;71486.72;1726040;75;41243;-74
2023/06/25 05:40:33;;;;;;;3.30;3.00;;;;;;;-148.14;100.00;71486.72;1725534;75;42482;-72
2023/06/25 05:43:03;;;;;;;3.10;2.80;;;;;;;-148.14;100.00;71486.72;1725685;83;41770;-75
2023/06/25 05:45:32;;;;;;;2.90;2.60;;;;;;;-148.14;100.00;71486.72;1725138;75;42139;-75
2023/06/25 05:48:02;;;;;;;5.20;4.60;;;;;;;-148.14;100.00;71486.72;1725603;75;41292;-76
2023/06/25 05:50:31;;;;;;;5.30;4.30;;;;;;;-148.14;100.00;71486.72;1725288;75;41225;-76
2023/06/25 05:53:03;;;;;;;4.80;4.30;;;;;;;-148.14;100.00;71486.72;1725784;75;41145;-74
2023/06/25 05:55:33;;;;;;;5.40;4.80;;;;;;;-148.14;100.00;71486.72;1725376;75;41256;-76
2023/06/25 05:58:02;;;;;;;5.20;4.70;;;;;;;-148.14;100.00;71486.72;1725631;75;41906;-77
2023/06/25 06:00:32;;;;;;;5.60;5.00;;;;;;;-148.14;100.00;71486.72;1725165;75;42006;-75
2023/06/25 06:03:01;;;;;;;5.00;4.30;;;;;;;-148.14;100.00;71486.72;1725789;75;42116;-72
2023/06/25 06:05:31;;;;;;;4.40;3.90;;;;;;;-148.14;100.00;71486.72;1725190;75;42076;-77
2023/06/25 06:08:03;;;;;;;4.50;4.10;;;;;;;-148.14;100.00;71486.72;1725690;75;41706;-77
2023/06/25 06:10:32;;;;;;;4.00;3.60;;;;;;;-148.14;100.00;71486.72;1724979;75;41692;-74
2023/06/25 06:13:02;;;;;;;5.50;4.10;;;;;;;-148.14;100.00;71486.72;1725849;75;41870;-76
2023/06/25 06:15:31;;;;;;;4.20;3.80;;;;;;;-148.14;100.00;71486.72;1725112;75;41424;-74
2023/06/25 06:18:01;;;;;;;4.80;4.10;;;;;;;-148.14;100.00;71486.72;1725056;75;41662;-76
2023/06/25 06:20:30;;;;;;;4.30;3.80;;;;;;;-148.14;100.00;71486.72;1724465;75;41562;-74
2023/06/25 06:23:01;;;;;;;4.40;4.00;;;;;;;-148.14;100.00;71486.72;1725646;75;41718;-74
2023/06/25 06:25:33;;;;;;;5.20;3.90;;;;;;;-148.14;100.00;71486.72;1725174;75;41292;-74
2023/06/25 06:28:03;;;;;;;4.20;3.80;;;;;;;-148.14;100.00;71486.72;1725088;75;41184;-76
2023/06/25 06:30:32;;;;;;;3.50;3.20;;;;;;;-148.14;100.00;71486.72;1724979;75;41734;-77
2023/06/25 06:33:02;;;;;;;4.40;3.60;;;;;;;-148.14;100.00;71486.72;1725611;75;41439;-74
2023/06/25 06:35:31;;;;;;;3.70;3.20;;;;;;;-148.14;100.00;71486.72;1725058;75;41747;-75
2023/06/25 06:38:01;;;;;;;4.40;3.60;;;;;;;-148.14;100.00;71486.72;1725602;75;42030;-75
2023/06/25 06:40:33;;;;;;;3.40;3.00;;;;;;;-148.14;100.00;71486.72;1724970;75;41555;-75
2023/06/25 06:43:03;;;;;;;5.00;3.70;;;;;;;-148.14;100.00;71486.72;1725374;83;41112;-77
2023/06/25 06:45:32;;;;;;;4.00;3.60;;;;;;;-148.14;100.00;71486.72;1724995;83;41265;-75
2023/06/25 06:48:02;;;;;;;4.50;3.70;;;;;;;-148.14;100.00;71486.72;1725133;75;42070;-77
2023/06/25 06:50:31;;;;;;;4.70;4.20;;;;;;;-148.14;100.00;71486.72;1724906;75;41262;-73
2023/06/25 06:53:01;;;;;;;3.90;3.50;;;;;;;-148.14;100.00;71486.72;1724689;75;41506;-75
2023/06/25 06:55:34;;;;;;;4.20;3.70;;;;;;;-148.14;100.00;71486.72;1724968;83;41482;-75
2023/06/25 06:58:03;;;;;;;4.90;4.40;;;;;;;-148.14;100.00;71486.72;1725642;75;41780;-74
2023/06/25 07:00:33;;;;;;;4.60;3.90;;;;;;;-148.14;100.00;71486.72;1725061;75;41744;-78
2023/06/25 07:03:02;;;;;;;4.40;4.00;;;;;;;-148.14;100.00;71486.72;1725447;75;42147;-75
2023/06/25 07:05:32;;;;;;;5.00;4.50;;;;;;;-148.14;100.00;71486.72;1724686;75;41602;-74
2023/06/25 07:08:01;;;;;;;5.60;5.00;;;;;;;-148.14;100.00;71486.72;1725527;75;42141;-75
2023/06/25 07:10:35;;;;;;;5.10;4.40;;;;;;;-148.14;100.00;71486.72;1725022;83;41440;-74
2023/06/25 07:13:04;;;;;;;5.40;4.40;;;;;;;-148.14;100.00;71486.72;1725538;75;41914;-75
2023/06/25 07:15:35;;;;;;;4.40;4.00;;;;;;;-148.14;100.00;71486.72;1724356;75;42720;-76
2023/06/25 07:18:06;;;;;;;4.40;4.00;;;;;;;-148.14;100.00;71486.72;1725504;83;41598;-76
2023/06/25 07:20:35;;;;;;;5.10;3.90;;;;;;;-148.14;100.00;71486.72;1725103;75;41577;-74
2023/06/25 07:23:05;;;;;;;4.80;4.30;;;;;;;-148.14;100.00;71486.72;1724816;75;42167;-76
2023/06/25 07:25:37;;;;;;;5.20;4.70;;;;;;;-148.14;100.00;71486.72;1724852;75;41074;-74
2023/06/25 07:28:08;;;;;;;4.70;4.20;;;;;;;-148.14;100.00;71486.72;1725578;75;41098;-74
2023/06/25 07:30:39;;;;;;;5.30;4.20;;;;;;;-148.14;100.00;71486.72;1724965;75;42318;-75
2023/06/25 07:33:08;;;;;;;4.80;3.90;;;;;;;-148.14;100.00;71486.72;1725449;75;41745;-75
2023/06/25 07:35:38;;;;;;;4.40;3.90;;;;;;;-148.14;100.00;71486.72;1724812;75;42046;-74
2023/06/25 07:38:07;;;;;;;4.60;3.90;;;;;;;-148.14;100.00;71486.72;1725208;75;41644;-75
2023/06/25 07:40:39;;;;;;;4.20;3.80;;;;;;;-148.14;100.00;71486.72;1724896;75;41541;-75
2023/06/25 07:43:09;;;;;;;5.50;4.50;;;;;;;-148.14;100.00;71486.72;1725379;75;41270;-76
2023/06/25 07:45:38;;;;;;;4.30;3.70;;;;;;;-148.14;100.00;71486.72;1724302;75;42319;-76
2023/06/25 07:48:08;;;;;;;4.00;3.60;;;;;;;-148.14;100.00;71486.72;1725104;75;41655;-76
2023/06/25 07:50:37;;;;;;;4.60;3.60;;;;;;;-148.14;100.00;71486.72;1724911;75;41459;-74
2023/06/25 07:53:07;;;;;;;6.80;4.30;;;;;;;-148.14;100.00;71486.72;1725412;75;41428;-77
2023/06/25 07:55:44;;;;;;;4.50;4.10;;;;;;;-148.14;100.00;71486.72;1724223;75;41808;-76
2023/06/25 07:58:14;;;;;;;5.20;4.30;;;;;;;-148.14;100.00;71486.72;1725021;83;41554;-74
2023/06/25 08:00:44;;;;;;;5.80;4.00;;;;;;;-148.14;100.00;71486.72;1725323;75;41139;-74
2023/06/25 08:03:13;;;;;;;7.20;4.20;;;;;;;-148.14;100.00;71486.72;1725440;75;41122;-78
2023/06/25 08:05:43;;;;;;;4.50;4.10;;;;;;;-148.14;100.00;71486.72;1725028;75;41500;-76
2023/06/25 08:08:12;;;;;;;4.30;3.70;;;;;;;-148.14;100.00;71486.72;1725483;75;41305;-78
2023/06/25 08:10:44;;;;;;;4.70;4.10;;;;;;;-148.14;100.00;71486.72;1724748;75;41624;-74
2023/06/25 08:13:14;;;;;;;4.00;3.60;;;;;;;-148.14;100.00;71486.72;1725511;75;41551;-75
2023/06/25 08:15:43;;;;;;;4.10;3.60;;;;;;;-148.14;100.00;71486.72;1724914;75;41449;-76
2023/06/25 08:18:13;;;;;;;4.00;3.60;;;;;;;-148.14;100.00;71486.72;1725343;75;41591;-76
2023/06/25 08:20:43;;;;;;;4.80;4.30;;;;;;;-148.14;100.00;71486.72;1724683;75;41195;-73
2023/06/25 08:23:12;;;;;;;4.70;3.90;;;;;;;-148.14;100.00;71486.72;1725327;75;41085;-76
2023/06/25 08:25:44;;;;;;;4.20;3.80;;;;;;;-148.14;100.00;71486.72;1724903;75;41401;-75
2023/06/25 08:28:14;;;;;;;4.10;3.70;;;;;;;-148.14;100.00;71486.72;1724662;83;41275;-76
2023/06/25 08:30:44;;;;;;;4.20;3.80;;;;;;;-148.14;100.00;71486.72;1724870;75;41152;-75
2023/06/25 08:33:13;;;;;;;4.20;3.80;;;;;;;-148.14;100.00;71486.72;1725113;75;41446;-75
2023/06/25 08:35:42;;;;;;;4.60;3.70;;;;;;;-148.14;100.00;71486.72;1724775;75;41220;-74
2023/06/25 08:38:17;;;;;;;3.90;3.50;;;;;;;-148.14;100.00;71486.72;1725209;75;41527;-77
2023/06/25 08:40:50;;;;;;;4.40;3.70;;;;;;;-148.14;100.00;71486.72;1725056;75;41394;-75
2023/06/25 08:43:19;;;;;;;4.10;3.70;;;;;;;-148.14;100.00;71486.72;1725550;75;41364;-75
2023/06/25 08:45:50;;;;;;;4.30;3.90;;;;;;;-148.14;100.00;71486.72;1724798;75;42440;-76
2023/06/25 08:48:21;;;;;;;4.80;3.70;;;;;;;-148.14;100.00;71486.72;1725878;75;41479;-74
2023/06/25 08:50:54;;;;;;;4.90;4.30;;;;;;;-148.14;100.00;71486.72;1725400;75;42656;-77
2023/06/25 08:53:23;;;;;;;5.00;3.50;;;;;;;-148.14;100.00;71486.72;1725533;75;42496;-75
2023/06/25 08:55:58;;;;;;;4.70;4.00;;;;;;;-148.14;100.00;71486.72;1725305;83;41735;-73
2023/06/25 08:58:29;;;;;;;4.60;4.10;;;;;;;-148.14;100.00;71486.72;1725851;75;41106;-75
2023/06/25 09:00:58;;;;;;;5.40;4.70;;;;;;;-148.14;100.00;71486.72;1724748;75;41857;-75
2023/06/25 09:03:28;;;;;;;5.70;4.80;;;;;;;-148.14;100.00;71486.72;1725653;83;41808;-75
2023/06/25 09:05:58;;;;;;;5.60;4.40;;;;;;;-148.14;100.00;71486.72;1725075;75;41532;-75
2023/06/25 09:08:29;;;;;;;4.80;4.20;;;;;;;-148.14;100.00;71486.72;1725761;75;41526;-72
2023/06/25 09:11:01;;;;;;;5.70;5.10;;;;;;;-148.14;100.00;71486.72;1725234;75;41696;-74
2023/06/25 09:13:31;;;;;;;4.60;4.20;;;;;;;-148.14;100.00;71486.72;1725868;75;41547;-75
2023/06/25 09:16:04;;;;;;;4.90;4.40;;;;;;;-148.14;100.00;71486.72;1724571;75;41900;-73
2023/06/25 09:18:34;;;;;;;5.30;4.80;;;;;;;-148.14;100.00;71486.72;1725102;75;41121;-76
2023/06/25 09:21:04;;;;;;;4.60;3.80;;;;;;;-148.14;100.00;71486.72;1725099;75;41809;-76
2023/06/25 09:23:35;;;;;;;4.20;3.80;;;;;;;-148.14;100.00;71486.72;1725006;75;41624;-76
2023/06/25 09:26:11;;;;;;;4.20;3.70;;;;;;;-148.14;100.00;71486.72;1724754;75;42242;-76
2023/06/25 09:28:51;;;;;;;5.10;4.60;;;;;;;-148.14;100.00;71486.72;1725026;75;41575;-73
2023/06/25 09:31:21;;;;;;;4.70;4.10;;;;;;;-148.14;100.00;71486.72;1725488;75;41193;-75
2023/06/25 09:33:53;;;;;;;4.90;4.40;;;;;;;-148.14;100.00;71486.72;1725118;75;42142;-75
2023/06/25 09:36:23;;;;;;;4.70;4.30;;;;;;;-148.14;100.00;71486.72;1725538;75;41489;-75
2023/06/25 09:38:53;;;;;;;5.00;4.50;;;;;;;-148.14;100.00;71486.72;1725216;75;41957;-77
2023/06/25 09:41:25;;;;;;;5.20;4.50;;;;;;;-148.14;100.00;71486.72;1725806;75;41562;-76
2023/06/25 09:43:56;;;;;;;5.20;4.50;;;;;;;-148.14;100.00;71486.72;1725148;83;41114;-73
2023/06/25 09:46:26;;;;;;;5.20;4.50;;;;;;;-148.14;100.00;71486.72;1725689;75;41092;-76
2023/06/25 09:49:00;;;;;;;5.30;4.80;;;;;;;-148.14;100.00;71486.72;1725219;75;41319;-74
2023/06/25 09:51:34;;;;;;;4.20;3.80;;;;;;;-148.14;100.00;71486.72;1725795;75;41719;-74
2023/06/25 09:54:06;;;;;;;4.70;4.20;;;;;;;-148.14;100.00;71486.72;1725251;75;41589;-73
2023/06/25 09:56:39;;;;;;;5.70;5.10;;;;;;;-148.14;100.00;71486.72;1725955;75;42020;-75
2023/06/25 09:59:09;;;;;;;4.70;4.20;;;;;;;-148.14;100.00;71486.72;1724980;75;43017;-76
2023/06/25 10:01:39;;;;;;;5.40;4.50;;;;;;;-148.14;100.00;71486.72;1725870;75;41506;-75
2023/06/25 10:04:08;;;;;;;4.20;3.80;;;;;;;-148.14;100.00;71486.72;1725750;75;41630;-78
2023/06/25 10:06:38;;;;;;;4.90;4.40;;;;;;;-148.14;100.00;71486.72;1726346;75;41146;-76
2023/06/25 10:09:08;;;;;;;5.70;4.90;;;;;;;-148.14;100.00;71486.72;1725150;75;41563;-77
2023/06/25 10:11:40;;;;;;;5.90;5.30;;;;;;;-148.14;100.00;71486.72;1726321;75;41096;-77
2023/06/25 10:14:10;;;;;;;4.80;4.30;;;;;;;-148.14;100.00;71486.72;1725214;75;42477;-75
2023/06/25 10:16:40;;;;;;;5.40;4.50;;;;;;;-148.14;100.00;71486.72;1724949;75;42598;-76
2023/06/25 10:19:10;;;;;;;4.90;4.40;;;;;;;-148.14;100.00;71486.72;1725022;75;41950;-75
2023/06/25 10:21:39;;;;;;;4.40;4.00;;;;;;;-148.14;100.00;71486.72;1725418;75;41141;-77
2023/06/25 10:24:09;;;;;;;4.90;4.40;;;;;;;-148.14;100.00;71486.72;1725138;75;41301;-77
2023/06/25 10:26:41;;;;;;;5.40;4.90;;;;;;;-148.14;100.00;71486.72;1725425;75;41223;-75
2023/06/25 10:29:14;;;;;;;5.70;5.10;;;;;;;-148.14;100.00;71486.72;1724942;75;41902;-77
2023/06/25 10:31:46;;;;;;;5.30;4.80;;;;;;;-148.14;100.00;71486.72;1725693;75;41066;-74
2023/06/25 10:34:16;;;;;;;4.90;4.40;;;;;;;-148.14;100.00;71486.72;1724426;75;41931;-73
2023/06/25 10:36:52;;;;;;;4.60;4.10;;;;;;;-148.14;100.00;71486.72;1725362;75;41479;-74
2023/06/25 10:39:22;;;;;;;4.40;4.00;;;;;;;-148.14;100.00;71486.72;1724888;75;42135;-74
2023/06/25 10:41:54;;;;;;;5.00;4.50;;;;;;;-148.14;100.00;71486.72;1725292;75;41470;-73
2023/06/25 10:44:30;;;;;;;6.00;4.60;;;;;;;-148.14;100.00;71486.72;1725065;75;42483;-76
2023/06/25 10:47:05;;;;;;;5.20;4.70;;;;;;;-148.14;100.00;71486.72;1725158;75;41483;-74
2023/06/25 10:49:35;;;;;;;5.80;4.60;;;;;;;-148.14;100.00;71486.72;1725576;75;41127;-75
2023/06/25 10:52:05;;;;;;;5.10;4.60;;;;;;;-148.14;100.00;71486.72;1724884;75;41358;-75
2023/06/25 10:54:35;;;;;;;4.90;4.20;;;;;;;-148.14;100.00;71486.72;1725620;75;41892;-78
2023/06/25 10:57:15;;;;;;;6.00;5.40;;;;;;;-148.14;100.00;71486.72;1724900;75;42124;-75
2023/06/25 10:59:46;;;;;;;5.10;4.20;;;;;;;-148.14;100.00;71486.72;1724999;83;41568;-77
2023/06/25 11:02:21;;;;;;;4.50;4.10;;;;;;;-148.14;100.00;71486.72;1724908;75;42060;-77
2023/06/25 11:04:53;;;;;;;5.50;5.00;;;;;;;-148.14;100.00;71486.72;1725524;75;41087;-74
2023/06/25 11:07:25;;;;;;;6.40;4.80;;;;;;;-148.14;100.00;71486.72;1724880;75;41280;-77
2023/06/25 11:09:56;;;;;;;5.10;4.60;;;;;;;-148.14;100.00;71486.72;1725632;75;41404;-75
2023/06/25 11:12:29;;;;;;;5.60;5.00;;;;;;;-148.14;100.00;71486.72;1725158;75;42412;-76
2023/06/25 11:14:59;;;;;;;5.60;4.90;;;;;;;-148.14;100.00;71486.72;1725175;83;41199;-73
2023/06/25 11:17:28;;;;;;;5.30;4.60;;;;;;;-148.14;100.00;71486.72;1725113;75;42422;-76
2023/06/25 11:19:59;;;;;;;4.40;4.00;;;;;;;-148.14;100.00;71486.72;1725406;75;42254;-77
2023/06/25 11:22:29;;;;;;;5.40;4.90;;;;;;;-148.14;100.00;71486.72;1724819;75;41291;-75
2023/06/25 11:25:01;;;;;;;5.90;5.30;;;;;;;-148.14;100.00;71486.72;1725261;75;41650;-76